sensor_id;sensor_type;location;lat;lon;timestamp;pressure;altitude;pressure_sealevel;temperature;humidity
23170;BME280;11753;43.144;24.714;2022-10-23T00:00:23;99744.09;;;13.66;71.60
23170;BME280;11753;43.144;24.714;2022-10-23T00:01:31;99743.56;;;13.70;71.49
23170;BME280;11753;43.144;24.714;2022-10-23T00:02:33;99747.53;;;13.74;71.01
23170;BME280;11753;43.144;24.714;2022-10-23T00:03:34;99748.38;;;13.75;71.06
23170;BME280;11753;43.144;24.714;2022-10-23T00:04:34;99745.22;;;13.71;71.14
23170;BME280;11753;43.144;24.714;2022-10-23T00:05:38;99745.41;;;13.70;71.13
23170;BME280;11753;43.144;24.714;2022-10-23T00:06:41;99736.13;;;13.74;71.23
23170;BME280;11753;43.144;24.714;2022-10-23T00:07:42;99741.94;;;13.69;71.27
23170;BME280;11753;43.144;24.714;2022-10-23T00:08:45;99740.59;;;13.73;71.09
23170;BME280;11753;43.144;24.714;2022-10-23T00:09:46;99740.25;;;13.76;70.84
23170;BME280;11753;43.144;24.714;2022-10-23T00:10:47;99749.53;;;13.72;71.07
23170;BME280;11753;43.144;24.714;2022-10-23T00:11:49;99742.06;;;13.76;71.11
23170;BME280;11753;43.144;24.714;2022-10-23T00:12:51;99749.19;;;13.75;71.04
23170;BME280;11753;43.144;24.714;2022-10-23T00:13:55;99747.19;;;13.77;70.82
23170;BME280;11753;43.144;24.714;2022-10-23T00:14:56;99755.16;;;13.69;71.27
23170;BME280;11753;43.144;24.714;2022-10-23T00:15:57;99757.47;;;13.72;71.37
23170;BME280;11753;43.144;24.714;2022-10-23T00:16:58;99763.28;;;13.68;71.40
23170;BME280;11753;43.144;24.714;2022-10-23T00:17:59;99751.88;;;13.67;71.36
23170;BME280;11753;43.144;24.714;2022-10-23T00:19:00;99753.50;;;13.68;71.18
23170;BME280;11753;43.144;24.714;2022-10-23T00:20:02;99755.81;;;13.71;71.10
23170;BME280;11753;43.144;24.714;2022-10-23T00:21:05;99750.50;;;13.71;71.25
23170;BME280;11753;43.144;24.714;2022-10-23T00:22:10;99752.34;;;13.71;71.15
23170;BME280;11753;43.144;24.714;2022-10-23T00:23:10;99754.34;;;13.69;71.20
23170;BME280;11753;43.144;24.714;2022-10-23T00:24:11;99740.09;;;13.70;71.31
23170;BME280;11753;43.144;24.714;2022-10-23T00:25:12;99749.19;;;13.75;71.14
23170;BME280;11753;43.144;24.714;2022-10-23T00:26:14;99757.63;;;13.71;71.15
23170;BME280;11753;43.144;24.714;2022-10-23T00:27:15;99765.41;;;13.64;71.46
23170;BME280;11753;43.144;24.714;2022-10-23T00:28:16;99762.13;;;13.62;71.71
23170;BME280;11753;43.144;24.714;2022-10-23T00:29:17;99766.06;;;13.74;71.33
23170;BME280;11753;43.144;24.714;2022-10-23T00:30:18;99755.50;;;13.66;71.23
23170;BME280;11753;43.144;24.714;2022-10-23T00:31:22;99767.94;;;13.58;71.98
23170;BME280;11753;43.144;24.714;2022-10-23T00:32:23;99772.06;;;13.60;71.88
23170;BME280;11753;43.144;24.714;2022-10-23T00:33:24;99769.91;;;13.56;72.05
23170;BME280;11753;43.144;24.714;2022-10-23T00:34:25;99769.06;;;13.55;72.10
23170;BME280;11753;43.144;24.714;2022-10-23T00:35:26;99769.72;;;13.57;72.21
23170;BME280;11753;43.144;24.714;2022-10-23T00:36:27;99768.75;;;13.58;72.12
23170;BME280;11753;43.144;24.714;2022-10-23T00:37:28;99773.34;;;13.64;72.12
23170;BME280;11753;43.144;24.714;2022-10-23T00:38:29;99772.19;;;13.67;71.90
23170;BME280;11753;43.144;24.714;2022-10-23T00:39:30;99776.00;;;13.64;71.93
23170;BME280;11753;43.144;24.714;2022-10-23T00:40:31;99775.69;;;13.59;72.05
23170;BME280;11753;43.144;24.714;2022-10-23T00:41:32;99773.03;;;13.67;71.92
23170;BME280;11753;43.144;24.714;2022-10-23T00:42:33;99768.06;;;13.64;72.01
23170;BME280;11753;43.144;24.714;2022-10-23T00:43:52;99771.56;;;13.65;71.90
23170;BME280;11753;43.144;24.714;2022-10-23T00:45:55;99764.59;;;13.64;72.13
23170;BME280;11753;43.144;24.714;2022-10-23T00:46:57;99782.25;;;13.71;71.80
23170;BME280;11753;43.144;24.714;2022-10-23T00:47:59;99777.28;;;13.76;71.58
23170;BME280;11753;43.144;24.714;2022-10-23T00:49:01;99780.59;;;13.78;71.68
23170;BME280;11753;43.144;24.714;2022-10-23T00:50:04;99775.63;;;13.84;71.37
23170;BME280;11753;43.144;24.714;2022-10-23T00:51:05;99776.59;;;13.91;71.07
23170;BME280;11753;43.144;24.714;2022-10-23T00:52:08;99775.28;;;13.78;71.42
23170;BME280;11753;43.144;24.714;2022-10-23T00:53:11;99788.22;;;13.73;71.75
23170;BME280;11753;43.144;24.714;2022-10-23T00:54:13;99774.34;;;13.63;72.12
23170;BME280;11753;43.144;24.714;2022-10-23T00:55:17;99772.06;;;13.60;72.30
23170;BME280;11753;43.144;24.714;2022-10-23T00:56:18;99777.66;;;13.57;72.59
23170;BME280;11753;43.144;24.714;2022-10-23T00:57:19;99776.69;;;13.50;72.67
23170;BME280;11753;43.144;24.714;2022-10-23T00:58:20;99780.84;;;13.53;72.79
23170;BME280;11753;43.144;24.714;2022-10-23T00:59:21;99783.13;;;13.56;72.82
23170;BME280;11753;43.144;24.714;2022-10-23T01:00:27;99792.88;;;13.63;72.58
23170;BME280;11753;43.144;24.714;2022-10-23T01:01:28;99793.38;;;13.67;72.38
23170;BME280;11753;43.144;24.714;2022-10-23T01:02:31;99789.56;;;13.61;72.42
23170;BME280;11753;43.144;24.714;2022-10-23T01:03:31;99794.50;;;13.64;72.35
23170;BME280;11753;43.144;24.714;2022-10-23T01:04:33;99790.22;;;13.63;72.34
23170;BME280;11753;43.144;24.714;2022-10-23T01:05:40;99792.03;;;13.63;72.26
23170;BME280;11753;43.144;24.714;2022-10-23T01:08:28;99807.09;;;13.54;72.57
23170;BME280;11753;43.144;24.714;2022-10-23T01:10:46;99807.44;;;13.59;72.19
23170;BME280;11753;43.144;24.714;2022-10-23T01:13:10;99799.97;;;13.63;72.38
23170;BME280;11753;43.144;24.714;2022-10-23T01:16:04;99799.81;;;13.64;72.08
23170;BME280;11753;43.144;24.714;2022-10-23T01:17:19;99811.06;;;13.58;72.33
23170;BME280;11753;43.144;24.714;2022-10-23T01:18:27;99805.63;;;13.60;72.27
23170;BME280;11753;43.144;24.714;2022-10-23T01:25:00;99817.69;;;13.46;73.06
23170;BME280;11753;43.144;24.714;2022-10-23T01:27:24;99818.19;;;13.49;72.91
23170;BME280;11753;43.144;24.714;2022-10-23T01:28:33;99827.28;;;13.47;72.96
23170;BME280;11753;43.144;24.714;2022-10-23T01:29:41;99825.13;;;13.42;72.91
23170;BME280;11753;43.144;24.714;2022-10-23T01:30:43;99831.22;;;13.43;73.11
23170;BME280;11753;43.144;24.714;2022-10-23T01:31:54;99837.53;;;13.42;73.14
23170;BME280;11753;43.144;24.714;2022-10-23T01:33:08;99840.84;;;13.44;73.08
23170;BME280;11753;43.144;24.714;2022-10-23T01:34:17;99828.59;;;13.43;73.09
23170;BME280;11753;43.144;24.714;2022-10-23T01:35:44;99847.78;;;13.45;73.16
23170;BME280;11753;43.144;24.714;2022-10-23T01:36:48;99853.06;;;13.45;73.11
23170;BME280;11753;43.144;24.714;2022-10-23T01:37:54;99853.38;;;13.50;73.09
23170;BME280;11753;43.144;24.714;2022-10-23T01:39:04;99857.03;;;13.33;73.83
23170;BME280;11753;43.144;24.714;2022-10-23T01:40:12;99859.31;;;13.36;73.71
23170;BME280;11753;43.144;24.714;2022-10-23T01:41:40;99855.84;;;13.35;73.86
23170;BME280;11753;43.144;24.714;2022-10-23T01:42:46;99862.31;;;13.41;73.70
23170;BME280;11753;43.144;24.714;2022-10-23T01:45:27;99875.88;;;13.46;73.48
23170;BME280;11753;43.144;24.714;2022-10-23T01:46:33;99863.31;;;13.48;73.47
23170;BME280;11753;43.144;24.714;2022-10-23T01:47:38;99883.16;;;13.44;73.50
23170;BME280;11753;43.144;24.714;2022-10-23T01:48:45;99877.19;;;13.50;73.47
23170;BME280;11753;43.144;24.714;2022-10-23T01:49:51;99884.63;;;13.46;73.65
23170;BME280;11753;43.144;24.714;2022-10-23T01:50:55;99870.25;;;13.49;73.52
23170;BME280;11753;43.144;24.714;2022-10-23T01:52:01;99885.78;;;13.52;73.52
23170;BME280;11753;43.144;24.714;2022-10-23T01:53:03;99889.44;;;13.51;73.32
23170;BME280;11753;43.144;24.714;2022-10-23T01:54:07;99875.88;;;13.54;73.29
23170;BME280;11753;43.144;24.714;2022-10-23T01:55:10;99884.97;;;13.52;73.57
23170;BME280;11753;43.144;24.714;2022-10-23T01:56:20;99897.19;;;13.53;73.30
23170;BME280;11753;43.144;24.714;2022-10-23T01:57:24;99901.31;;;13.55;73.46
23170;BME280;11753;43.144;24.714;2022-10-23T01:58:28;99904.63;;;13.57;73.31
23170;BME280;11753;43.144;24.714;2022-10-23T01:59:36;99905.78;;;13.63;73.08
23170;BME280;11753;43.144;24.714;2022-10-23T02:00:39;99910.25;;;13.62;72.96
23170;BME280;11753;43.144;24.714;2022-10-23T02:01:44;99909.75;;;13.67;73.02
23170;BME280;11753;43.144;24.714;2022-10-23T02:02:47;99908.59;;;13.69;72.81
23170;BME280;11753;43.144;24.714;2022-10-23T02:03:51;99903.66;;;13.58;73.06
23170;BME280;11753;43.144;24.714;2022-10-23T02:05:17;99907.25;;;13.57;73.14
23170;BME280;11753;43.144;24.714;2022-10-23T02:06:21;99915.19;;;13.57;73.29
23170;BME280;11753;43.144;24.714;2022-10-23T02:07:22;99909.91;;;13.57;73.24
23170;BME280;11753;43.144;24.714;2022-10-23T02:08:23;99925.63;;;13.59;73.42
23170;BME280;11753;43.144;24.714;2022-10-23T02:09:25;99932.06;;;13.64;73.03
23170;BME280;11753;43.144;24.714;2022-10-23T02:12:13;99938.69;;;13.68;72.82
23170;BME280;11753;43.144;24.714;2022-10-23T02:16:36;99959.03;;;13.68;72.95
23170;BME280;11753;43.144;24.714;2022-10-23T02:20:56;99962.31;;;13.70;73.06
23170;BME280;11753;43.144;24.714;2022-10-23T02:22:15;99966.31;;;13.66;72.33
23170;BME280;11753;43.144;24.714;2022-10-23T02:23:32;99964.81;;;13.71;71.99
23170;BME280;11753;43.144;24.714;2022-10-23T02:24:50;99968.78;;;13.75;71.78
23170;BME280;11753;43.144;24.714;2022-10-23T02:26:20;99964.81;;;13.88;70.79
23170;BME280;11753;43.144;24.714;2022-10-23T02:27:49;99969.09;;;13.97;69.76
23170;BME280;11753;43.144;24.714;2022-10-23T02:28:57;99962.81;;;14.22;66.57
23170;BME280;11753;43.144;24.714;2022-10-23T02:30:11;99969.06;;;14.46;65.95
23170;BME280;11753;43.144;24.714;2022-10-23T02:31:15;99980.56;;;14.69;64.31
23170;BME280;11753;43.144;24.714;2022-10-23T02:32:18;99972.59;;;14.77;65.01
23170;BME280;11753;43.144;24.714;2022-10-23T02:33:20;99985.63;;;14.95;63.38
23170;BME280;11753;43.144;24.714;2022-10-23T02:34:21;99984.47;;;15.21;62.20
23170;BME280;11753;43.144;24.714;2022-10-23T02:35:23;99995.84;;;15.37;61.18
23170;BME280;11753;43.144;24.714;2022-10-23T02:36:24;99987.84;;;15.68;60.14
23170;BME280;11753;43.144;24.714;2022-10-23T02:37:25;99998.69;;;16.05;58.38
23170;BME280;11753;43.144;24.714;2022-10-23T02:38:35;99995.16;;;16.27;57.54
23170;BME280;11753;43.144;24.714;2022-10-23T02:39:37;99998.50;;;16.59;56.11
23170;BME280;11753;43.144;24.714;2022-10-23T02:40:41;99998.53;;;16.88;55.01
23170;BME280;11753;43.144;24.714;2022-10-23T02:41:50;99994.38;;;17.00;54.71
23170;BME280;11753;43.144;24.714;2022-10-23T02:43:09;100001.88;;;17.12;54.36
23170;BME280;11753;43.144;24.714;2022-10-23T02:45:35;100005.88;;;17.37;53.43
23170;BME280;11753;43.144;24.714;2022-10-23T02:49:23;100007.78;;;17.65;52.87
23170;BME280;11753;43.144;24.714;2022-10-23T02:50:37;100006.50;;;17.60;52.86
23170;BME280;11753;43.144;24.714;2022-10-23T02:57:12;100011.44;;;17.64;53.43
23170;BME280;11753;43.144;24.714;2022-10-23T03:00:45;100015.38;;;17.68;52.96
23170;BME280;11753;43.144;24.714;2022-10-23T03:02:25;100014.75;;;17.66;53.39
23170;BME280;11753;43.144;24.714;2022-10-23T03:03:27;100018.38;;;17.58;53.15
23170;BME280;11753;43.144;24.714;2022-10-23T03:04:30;100024.75;;;17.64;53.48
23170;BME280;11753;43.144;24.714;2022-10-23T03:05:35;100025.78;;;17.63;53.57
23170;BME280;11753;43.144;24.714;2022-10-23T03:06:38;100027.06;;;17.67;53.10
23170;BME280;11753;43.144;24.714;2022-10-23T03:07:39;100030.34;;;17.69;53.36
23170;BME280;11753;43.144;24.714;2022-10-23T03:08:56;100031.38;;;17.68;53.13
23170;BME280;11753;43.144;24.714;2022-10-23T03:09:57;100051.63;;;17.69;53.03
23170;BME280;11753;43.144;24.714;2022-10-23T03:10:58;100041.66;;;17.56;53.44
23170;BME280;11753;43.144;24.714;2022-10-23T03:11:59;100041.75;;;17.63;53.55
23170;BME280;11753;43.144;24.714;2022-10-23T03:13:00;100036.81;;;17.59;53.66
23170;BME280;11753;43.144;24.714;2022-10-23T03:14:01;100031.84;;;17.56;53.52
23170;BME280;11753;43.144;24.714;2022-10-23T03:15:03;100047.47;;;17.59;53.58
23170;BME280;11753;43.144;24.714;2022-10-23T03:16:04;100051.22;;;17.65;53.19
23170;BME280;11753;43.144;24.714;2022-10-23T03:17:05;100052.03;;;17.66;53.62
23170;BME280;11753;43.144;24.714;2022-10-23T03:18:06;100059.75;;;17.60;53.66
23170;BME280;11753;43.144;24.714;2022-10-23T03:19:07;100048.47;;;17.58;53.71
23170;BME280;11753;43.144;24.714;2022-10-23T03:20:09;100057.22;;;17.52;53.80
23170;BME280;11753;43.144;24.714;2022-10-23T03:21:10;100062.13;;;17.55;54.13
23170;BME280;11753;43.144;24.714;2022-10-23T03:22:11;100067.84;;;17.52;54.27
23170;BME280;11753;43.144;24.714;2022-10-23T03:23:12;100071.53;;;17.51;54.24
23170;BME280;11753;43.144;24.714;2022-10-23T03:24:13;100071.88;;;17.48;54.31
23170;BME280;11753;43.144;24.714;2022-10-23T03:25:14;100063.66;;;17.43;54.83
23170;BME280;11753;43.144;24.714;2022-10-23T03:26:16;100067.06;;;17.37;54.84
23170;BME280;11753;43.144;24.714;2022-10-23T03:27:17;100063.19;;;17.40;54.95
23170;BME280;11753;43.144;24.714;2022-10-23T03:28:18;100064.66;;;17.42;55.12
23170;BME280;11753;43.144;24.714;2022-10-23T03:29:20;100063.28;;;17.46;54.81
23170;BME280;11753;43.144;24.714;2022-10-23T03:30:21;100059.44;;;17.34;55.20
23170;BME280;11753;43.144;24.714;2022-10-23T03:31:21;100070.09;;;17.34;55.38
23170;BME280;11753;43.144;24.714;2022-10-23T03:32:22;100070.09;;;17.34;55.61
23170;BME280;11753;43.144;24.714;2022-10-23T03:33:23;100073.03;;;17.24;55.82
23170;BME280;11753;43.144;24.714;2022-10-23T03:34:24;100071.50;;;17.15;56.21
23170;BME280;11753;43.144;24.714;2022-10-23T03:35:25;100080.31;;;17.16;56.34
23170;BME280;11753;43.144;24.714;2022-10-23T03:36:26;100075.13;;;17.14;56.32
23170;BME280;11753;43.144;24.714;2022-10-23T03:37:27;100086.91;;;17.05;56.79
23170;BME280;11753;43.144;24.714;2022-10-23T03:38:28;100076.88;;;17.07;57.14
23170;BME280;11753;43.144;24.714;2022-10-23T03:39:29;100081.38;;;17.06;57.22
23170;BME280;11753;43.144;24.714;2022-10-23T03:40:30;100072.78;;;17.04;57.51
23170;BME280;11753;43.144;24.714;2022-10-23T03:41:31;100075.09;;;17.08;57.60
23170;BME280;11753;43.144;24.714;2022-10-23T03:42:32;100072.97;;;17.03;57.45
23170;BME280;11753;43.144;24.714;2022-10-23T03:43:33;100077.47;;;17.02;57.69
23170;BME280;11753;43.144;24.714;2022-10-23T03:44:34;100077.66;;;17.01;57.88
23170;BME280;11753;43.144;24.714;2022-10-23T03:45:35;100071.84;;;16.97;58.04
23170;BME280;11753;43.144;24.714;2022-10-23T03:46:38;100071.22;;;16.95;58.23
23170;BME280;11753;43.144;24.714;2022-10-23T03:47:39;100072.88;;;16.96;58.29
23170;BME280;11753;43.144;24.714;2022-10-23T03:48:40;100077.91;;;16.91;58.39
23170;BME280;11753;43.144;24.714;2022-10-23T03:49:41;100070.31;;;16.88;58.58
23170;BME280;11753;43.144;24.714;2022-10-23T03:50:42;100076.34;;;16.82;58.80
23170;BME280;11753;43.144;24.714;2022-10-23T03:51:43;100074.47;;;16.68;59.25
23170;BME280;11753;43.144;24.714;2022-10-23T03:52:51;100075.53;;;16.82;59.11
23170;BME280;11753;43.144;24.714;2022-10-23T03:53:52;100079.72;;;16.76;59.46
23170;BME280;11753;43.144;24.714;2022-10-23T03:54:53;100079.19;;;16.81;59.39
23170;BME280;11753;43.144;24.714;2022-10-23T03:55:54;100074.81;;;16.88;58.95
23170;BME280;11753;43.144;24.714;2022-10-23T03:56:56;100082.97;;;16.86;59.13
23170;BME280;11753;43.144;24.714;2022-10-23T03:57:57;100072.69;;;16.83;59.37
23170;BME280;11753;43.144;24.714;2022-10-23T03:58:58;100076.72;;;16.79;59.55
23170;BME280;11753;43.144;24.714;2022-10-23T03:59:59;100074.41;;;16.76;59.67
23170;BME280;11753;43.144;24.714;2022-10-23T04:00:59;100071.47;;;16.71;59.95
23170;BME280;11753;43.144;24.714;2022-10-23T04:02:00;100081.00;;;16.65;60.18
23170;BME280;11753;43.144;24.714;2022-10-23T04:03:01;100072.81;;;16.67;60.05
23170;BME280;11753;43.144;24.714;2022-10-23T04:04:02;100071.47;;;16.71;60.13
23170;BME280;11753;43.144;24.714;2022-10-23T04:05:04;100066.72;;;16.81;60.08
23170;BME280;11753;43.144;24.714;2022-10-23T04:06:05;100071.13;;;16.74;59.91
23170;BME280;11753;43.144;24.714;2022-10-23T04:07:06;100078.47;;;16.72;60.15
23170;BME280;11753;43.144;24.714;2022-10-23T04:08:08;100079.16;;;16.66;60.15
23170;BME280;11753;43.144;24.714;2022-10-23T04:09:09;100079.50;;;16.63;60.30
23170;BME280;11753;43.144;24.714;2022-10-23T04:10:10;100077.84;;;16.62;60.31
23170;BME280;11753;43.144;24.714;2022-10-23T04:11:11;100080.50;;;16.62;60.47
23170;BME280;11753;43.144;24.714;2022-10-23T04:12:12;100077.56;;;16.57;60.55
23170;BME280;11753;43.144;24.714;2022-10-23T04:13:13;100085.19;;;16.60;60.34
23170;BME280;11753;43.144;24.714;2022-10-23T04:14:14;100093.34;;;16.58;60.26
23170;BME280;11753;43.144;24.714;2022-10-23T04:15:15;100082.88;;;16.57;60.49
23170;BME280;11753;43.144;24.714;2022-10-23T04:16:16;100078.31;;;16.50;60.77
23170;BME280;11753;43.144;24.714;2022-10-23T04:17:17;100081.84;;;16.43;60.80
23170;BME280;11753;43.144;24.714;2022-10-23T04:18:18;100090.66;;;16.43;61.08
23170;BME280;11753;43.144;24.714;2022-10-23T04:19:20;100088.00;;;16.43;61.03
23170;BME280;11753;43.144;24.714;2022-10-23T04:20:21;100081.38;;;16.39;61.29
23170;BME280;11753;43.144;24.714;2022-10-23T04:21:21;100085.69;;;16.40;61.35
23170;BME280;11753;43.144;24.714;2022-10-23T04:22:22;100086.31;;;16.42;61.43
23170;BME280;11753;43.144;24.714;2022-10-23T04:23:23;100088.34;;;16.40;61.33
23170;BME280;11753;43.144;24.714;2022-10-23T04:24:25;100092.00;;;16.39;61.45
23170;BME280;11753;43.144;24.714;2022-10-23T04:25:26;100084.03;;;16.39;61.77
23170;BME280;11753;43.144;24.714;2022-10-23T04:26:27;100087.22;;;16.35;61.68
23170;BME280;11753;43.144;24.714;2022-10-23T04:27:28;100087.72;;;16.38;61.67
23170;BME280;11753;43.144;24.714;2022-10-23T04:28:29;100086.69;;;16.39;61.68
23170;BME280;11753;43.144;24.714;2022-10-23T04:29:30;100075.06;;;16.40;61.67
23170;BME280;11753;43.144;24.714;2022-10-23T04:30:32;100078.72;;;16.39;61.79
23170;BME280;11753;43.144;24.714;2022-10-23T04:31:33;100083.56;;;16.36;61.92
23170;BME280;11753;43.144;24.714;2022-10-23T04:32:34;100078.44;;;16.34;62.04
23170;BME280;11753;43.144;24.714;2022-10-23T04:33:35;100079.00;;;16.30;62.32
23170;BME280;11753;43.144;24.714;2022-10-23T04:34:36;100084.47;;;16.28;62.39
23170;BME280;11753;43.144;24.714;2022-10-23T04:35:36;100102.22;;;16.28;62.53
23170;BME280;11753;43.144;24.714;2022-10-23T04:36:37;100103.34;;;16.33;62.38
23170;BME280;11753;43.144;24.714;2022-10-23T04:37:38;100095.03;;;16.36;62.33
23170;BME280;11753;43.144;24.714;2022-10-23T04:38:39;100096.50;;;16.39;62.37
23170;BME280;11753;43.144;24.714;2022-10-23T04:39:44;100088.41;;;16.32;62.21
23170;BME280;11753;43.144;24.714;2022-10-23T04:40:45;100100.50;;;16.35;62.23
23170;BME280;11753;43.144;24.714;2022-10-23T04:41:46;100094.19;;;16.36;62.38
23170;BME280;11753;43.144;24.714;2022-10-23T04:42:46;100091.38;;;16.37;62.74
23170;BME280;11753;43.144;24.714;2022-10-23T04:43:47;100092.66;;;16.41;62.96
23170;BME280;11753;43.144;24.714;2022-10-23T04:44:48;100091.31;;;16.45;62.75
23170;BME280;11753;43.144;24.714;2022-10-23T04:45:49;100099.34;;;16.37;62.78
23170;BME280;11753;43.144;24.714;2022-10-23T04:46:50;100098.03;;;16.33;62.96
23170;BME280;11753;43.144;24.714;2022-10-23T04:47:51;100101.53;;;16.34;63.10
23170;BME280;11753;43.144;24.714;2022-10-23T04:48:55;100087.72;;;16.38;63.01
23170;BME280;11753;43.144;24.714;2022-10-23T04:49:56;100090.72;;;16.35;63.14
23170;BME280;11753;43.144;24.714;2022-10-23T04:50:58;100088.72;;;16.37;63.19
23170;BME280;11753;43.144;24.714;2022-10-23T04:52:00;100097.69;;;16.36;62.93
23170;BME280;11753;43.144;24.714;2022-10-23T04:53:01;100103.84;;;16.37;62.93
23170;BME280;11753;43.144;24.714;2022-10-23T04:54:02;100118.88;;;16.44;62.86
23170;BME280;11753;43.144;24.714;2022-10-23T04:55:05;100116.28;;;16.36;63.18
23170;BME280;11753;43.144;24.714;2022-10-23T04:56:06;100116.56;;;16.41;63.36
23170;BME280;11753;43.144;24.714;2022-10-23T04:57:07;100116.13;;;16.38;63.25
23170;BME280;11753;43.144;24.714;2022-10-23T04:58:07;100128.38;;;16.39;63.36
23170;BME280;11753;43.144;24.714;2022-10-23T04:59:08;100127.91;;;16.35;63.69
23170;BME280;11753;43.144;24.714;2022-10-23T05:00:11;100119.88;;;16.43;63.39
23170;BME280;11753;43.144;24.714;2022-10-23T05:01:12;100122.69;;;16.42;63.75
23170;BME280;11753;43.144;24.714;2022-10-23T05:02:13;100120.22;;;16.40;63.70
23170;BME280;11753;43.144;24.714;2022-10-23T05:03:14;100119.22;;;16.41;63.83
23170;BME280;11753;43.144;24.714;2022-10-23T05:04:15;100122.06;;;16.40;63.81
23170;BME280;11753;43.144;24.714;2022-10-23T05:05:17;100120.72;;;16.44;63.94
23170;BME280;11753;43.144;24.714;2022-10-23T05:06:18;100122.19;;;16.46;63.71
23170;BME280;11753;43.144;24.714;2022-10-23T05:07:20;100124.91;;;16.38;63.90
23170;BME280;11753;43.144;24.714;2022-10-23T05:08:21;100129.91;;;16.33;64.41
23170;BME280;11753;43.144;24.714;2022-10-23T05:09:22;100128.38;;;16.39;64.43
23170;BME280;11753;43.144;24.714;2022-10-23T05:10:23;100121.06;;;16.41;64.48
23170;BME280;11753;43.144;24.714;2022-10-23T05:11:23;100130.84;;;16.40;64.37
23170;BME280;11753;43.144;24.714;2022-10-23T05:12:25;100120.22;;;16.40;64.67
23170;BME280;11753;43.144;24.714;2022-10-23T05:13:27;100122.53;;;16.43;64.94
23170;BME280;11753;43.144;24.714;2022-10-23T05:14:28;100120.88;;;16.42;64.87
23170;BME280;11753;43.144;24.714;2022-10-23T05:15:29;100120.81;;;16.50;64.69
23170;BME280;11753;43.144;24.714;2022-10-23T05:17:40;100118.06;;;16.44;65.25
23170;BME280;11753;43.144;24.714;2022-10-23T05:18:44;100122.09;;;16.55;65.11
23170;BME280;11753;43.144;24.714;2022-10-23T05:19:50;100125.41;;;16.57;65.31
23170;BME280;11753;43.144;24.714;2022-10-23T05:21:00;100118.44;;;16.56;65.56
23170;BME280;11753;43.144;24.714;2022-10-23T05:22:03;100125.06;;;16.60;65.74
23170;BME280;11753;43.144;24.714;2022-10-23T05:23:08;100127.22;;;16.56;65.96
23170;BME280;11753;43.144;24.714;2022-10-23T05:24:11;100123.41;;;16.59;66.04
23170;BME280;11753;43.144;24.714;2022-10-23T05:25:12;100125.41;;;16.57;66.05
23170;BME280;11753;43.144;24.714;2022-10-23T05:26:13;100134.19;;;16.57;66.38
23170;BME280;11753;43.144;24.714;2022-10-23T05:27:14;100140.19;;;16.59;66.65
23170;BME280;11753;43.144;24.714;2022-10-23T05:28:15;100126.00;;;16.67;66.63
23170;BME280;11753;43.144;24.714;2022-10-23T05:29:16;100139.47;;;16.65;66.52
23170;BME280;11753;43.144;24.714;2022-10-23T05:30:17;100136.28;;;16.70;66.85
23170;BME280;11753;43.144;24.714;2022-10-23T05:31:19;100140.94;;;16.68;66.67
23170;BME280;11753;43.144;24.714;2022-10-23T05:32:23;100145.75;;;16.72;66.43
23170;BME280;11753;43.144;24.714;2022-10-23T05:33:26;100145.66;;;16.81;66.45
23170;BME280;11753;43.144;24.714;2022-10-23T05:34:28;100143.00;;;16.81;66.09
23170;BME280;11753;43.144;24.714;2022-10-23T05:35:30;100149.78;;;16.83;66.42
23170;BME280;11753;43.144;24.714;2022-10-23T05:36:31;100150.06;;;16.88;66.18
23170;BME280;11753;43.144;24.714;2022-10-23T05:37:32;100154.66;;;16.94;66.21
23170;BME280;11753;43.144;24.714;2022-10-23T05:38:34;100153.75;;;16.87;66.57
23170;BME280;11753;43.144;24.714;2022-10-23T05:39:35;100146.84;;;16.78;67.09
23170;BME280;11753;43.144;24.714;2022-10-23T05:40:36;100147.50;;;16.80;67.48
23170;BME280;11753;43.144;24.714;2022-10-23T05:41:38;100154.81;;;16.78;67.77
23170;BME280;11753;43.144;24.714;2022-10-23T05:42:39;100159.88;;;16.88;67.61
23170;BME280;11753;43.144;24.714;2022-10-23T05:43:40;100161.25;;;16.84;67.84
23170;BME280;11753;43.144;24.714;2022-10-23T05:44:40;100151.72;;;16.89;67.81
23170;BME280;11753;43.144;24.714;2022-10-23T05:45:41;100166.31;;;16.93;67.56
23170;BME280;11753;43.144;24.714;2022-10-23T05:46:43;100161.25;;;16.98;67.38
23170;BME280;11753;43.144;24.714;2022-10-23T05:47:44;100166.03;;;16.88;67.91
23170;BME280;11753;43.144;24.714;2022-10-23T05:48:48;100156.59;;;17.00;67.71
23170;BME280;11753;43.144;24.714;2022-10-23T05:49:52;100155.59;;;17.01;67.79
23170;BME280;11753;43.144;24.714;2022-10-23T05:50:53;100157.97;;;16.96;67.88
23170;BME280;11753;43.144;24.714;2022-10-23T05:51:54;100157.31;;;16.94;68.59
23170;BME280;11753;43.144;24.714;2022-10-23T05:52:55;100146.78;;;17.01;68.31
23170;BME280;11753;43.144;24.714;2022-10-23T05:53:56;100148.78;;;17.14;67.95
23170;BME280;11753;43.144;24.714;2022-10-23T05:54:57;100147.81;;;17.15;68.02
23170;BME280;11753;43.144;24.714;2022-10-23T05:56:07;100151.00;;;17.25;68.06
23170;BME280;11753;43.144;24.714;2022-10-23T05:57:08;100149.09;;;17.19;68.41
23170;BME280;11753;43.144;24.714;2022-10-23T05:58:09;100167.63;;;17.27;68.58
23170;BME280;11753;43.144;24.714;2022-10-23T05:59:10;100156.88;;;17.35;68.14
23170;BME280;11753;43.144;24.714;2022-10-23T06:00:11;100164.84;;;17.35;68.86
23170;BME280;11753;43.144;24.714;2022-10-23T06:01:13;100154.50;;;17.40;68.42
23170;BME280;11753;43.144;24.714;2022-10-23T06:02:14;100184.41;;;17.42;68.61
23170;BME280;11753;43.144;24.714;2022-10-23T06:03:15;100162.38;;;17.48;68.50
23170;BME280;11753;43.144;24.714;2022-10-23T06:04:16;100166.97;;;17.54;68.41